WetterOnline ( https://www.wetteronline.de )

Wetter aktuell Waren (Müritz)

Aktuelles Wetter: Goldberg (58m)

6-stündlich | Neueste Meldungen
Ortszeit Temperatur Wetter
Do, 26.11. 19:00 5.4° C bedeckt
Do, 26.11. 13:00 7.5° C bedeckt
Do, 26.11. 7:00 2.9° C bedeckt
Do, 26.11. 1:00 2.5° C Nebel
Mi, 25.11. 19:00 2.0° C Nebel
Mi, 25.11. 13:00 1.0° C bedeckt
Mi, 25.11. 7:00 0.8° C Nebel
Mi, 25.11. 1:00 2.9° C bedeckt
Ortszeit Temperatur Wetter
Do, 26.11. 21:30 4.5° C Nebel
Do, 26.11. 21:20 4.5° C Nebel
Do, 26.11. 21:10 4.8° C bedeckt
Do, 26.11. 21:00 4.6° C bedeckt
Do, 26.11. 20:50 4.6° C bedeckt
Do, 26.11. 20:40 5.0° C bedeckt
Do, 26.11. 20:30 5.2° C bedeckt
Do, 26.11. 20:00 5.3° C bedeckt
Ortszeit Relative Feuchte Sichtweite
Do, 26.11. 19:00 99% 5.0 km
Do, 26.11. 13:00 99% 1.5 km
Do, 26.11. 7:00 98% 2.2 km
Do, 26.11. 1:00 99% 0.5 km
Mi, 25.11. 19:00 100% 0.7 km
Mi, 25.11. 13:00 99% 1.3 km
Mi, 25.11. 7:00 100% 0.2 km
Mi, 25.11. 1:00 99% 1.8 km
Ortszeit Relative Feuchte Sichtweite
Do, 26.11. 21:30 100% 0.9 km
Do, 26.11. 21:20 100% -
Do, 26.11. 21:10 100% -
Do, 26.11. 21:00 99% 1.5 km
Do, 26.11. 20:50 99% -
Do, 26.11. 20:40 100% -
Do, 26.11. 20:30 99% 1.2 km
Do, 26.11. 20:00 99% 3.8 km
Ortszeit Niederschlagsmenge Niederschlagsart
Do, 26.11. 19:00 0.2 l/m2 in 12 Std. Sprühregen
Do, 26.11. 13:00 0.2 l/m2 in 6 Std. Regen
Do, 26.11. 7:00 0.0 l/m2 in 12 Std. -
Do, 26.11. 1:00 0.0 l/m2 in 6 Std. -
Mi, 25.11. 19:00 0.0 l/m2 in 12 Std. -
Mi, 25.11. 13:00 0.0 l/m2 in 6 Std. -
Mi, 25.11. 7:00 0.0 l/m2 in 12 Std. -
Mi, 25.11. 1:00 0.0 l/m2 in 6 Std. -
Ortszeit Niederschlagsmenge Niederschlagsart
Do, 26.11. 21:30 0.0 l/m2 in 1 Std. -
Do, 26.11. 21:20 keine Meldung -
Do, 26.11. 21:10 keine Meldung -
Do, 26.11. 21:00 0.0 l/m2 in 1 Std. -
Do, 26.11. 20:50 keine Meldung -
Do, 26.11. 20:40 keine Meldung -
Do, 26.11. 20:30 0.0 l/m2 in 1 Std. -
Do, 26.11. 20:00 0.0 l/m2 in 1 Std. -
Ortszeit Stärke Spitze Richtung
km/h Bft. km/h Grad Sektor
Do, 26.11. 19:00 7 2 25 270° W
Do, 26.11. 13:00 17 3 28 250° W
Do, 26.11. 7:00 7 2 14 190° S
Do, 26.11. 1:00 9 2 24 200° S
Mi, 25.11. 19:00 14 3 29 180° S
Mi, 25.11. 13:00 11 2 22 160° S
Mi, 25.11. 7:00 9 2 19 160° S
Mi, 25.11. 1:00 7 2 22 150° SO
Ortszeit Stärke Spitze Richtung
km/h Bft. km/h Grad Sektor
Do, 26.11. 21:30 4 1 7 250° W
Do, 26.11. 21:20 4 1 - 250° W
Do, 26.11. 21:10 6 1 - 250° W
Do, 26.11. 21:00 4 1 7 260° W
Do, 26.11. 20:50 4 1 - 260° W
Do, 26.11. 20:40 4 1 - 280° W
Do, 26.11. 20:30 6 1 7 270° W
Do, 26.11. 20:00 6 1 11 280° W
Ortszeit Untergrenze Bedeckung Gattung
total tief tief mittel hoch
Do, 26.11. 19:00 4200 m 8/8 8/8 - - -
Do, 26.11. 13:00 60 m 8/8 8/8 - - -
Do, 26.11. 7:00 120 m 8/8 8/8 - - -
Do, 26.11. 1:00 30 m 8/8 8/8 - - -
Mi, 25.11. 19:00 30 m 8/8 8/8 - - -
Mi, 25.11. 13:00 30 m 8/8 8/8 - - -
Mi, 25.11. 7:00 <30 m 8/8 0/8 - - -
Mi, 25.11. 1:00 6300 m 8/8 8/8 - - -
Ortszeit Bedeckungsgrad in Achtel und Wolkenuntergrenze
Do, 26.11. 21:30 8(4800m)
Do, 26.11. 21:20 8(4800m)
Do, 26.11. 21:10 8(4800m)
Do, 26.11. 21:00 8(4800m)
Do, 26.11. 20:50 8(4800m)
Do, 26.11. 20:40 8(4800m)
Do, 26.11. 20:30 8(4800m)
Do, 26.11. 20:00 8(4500m)
Ortszeit Luftdruck NN (hPa) Tendenz (hPa in 3 Std.)
Do, 26.11. 19:00 1020 + 1,1
Do, 26.11. 13:00 1018 - 0,1
Do, 26.11. 7:00 1018 - 0,3
Do, 26.11. 1:00 1018 - 0,4
Mi, 25.11. 19:00 1019 + 0,4
Mi, 25.11. 13:00 1019 - 0,8
Mi, 25.11. 7:00 1019 - 0,3
Mi, 25.11. 1:00 1020 - 1,0
Ortszeit Luftdruck NN (hPa) Tendenz (hPa in 3 Std.)
Do, 26.11. 21:30 1020 + 0,4
Do, 26.11. 21:20 1020 keine Meldung
Do, 26.11. 21:10 1020 keine Meldung
Do, 26.11. 21:00 1020 + 0,4
Do, 26.11. 20:50 1020 keine Meldung
Do, 26.11. 20:40 1020 keine Meldung
Do, 26.11. 20:30 1020 + 0,5
Do, 26.11. 20:00 1020 + 0,6
Ortszeit Schneehöhe (cm)
Do, 26.11. 19:00 0
Do, 26.11. 13:00 0
Do, 26.11. 7:00 0
Do, 26.11. 1:00 0
Mi, 25.11. 19:00 0
Mi, 25.11. 13:00 0
Mi, 25.11. 7:00 0
Mi, 25.11. 1:00 0
Ortszeit Schneehöhe (cm)
Do, 26.11. 21:30 0
Do, 26.11. 21:20 0
Do, 26.11. 21:10 0
Do, 26.11. 21:00 0
Do, 26.11. 20:50 0
Do, 26.11. 20:40 0
Do, 26.11. 20:30 0
Do, 26.11. 20:00 0
Link zu dieser Seite / Seite empfehlen

Das Wetter in ...